Time,TemperatureF,DewpointF,PressureIn,WindDirection,WindDirectionDegrees,WindSpeedMPH,WindSpeedGustMPH,Humidity,HourlyPrecipIn,Conditions,Clouds,dailyrainin,SoftwareType,DateUTC
2013-03-02 00:01:00,47.0,8.0,30.09,SSE,158,3.0,5.0,20,0.00,,,0.00,,2013-03-02 08:01:00,
2013-03-02 00:21:00,47.0,8.0,30.09,SSE,158,3.0,3.0,20,0.00,,,0.00,,2013-03-02 08:21:00,
2013-03-02 00:31:00,47.0,8.0,30.09,SSE,158,0.0,0.0,20,0.00,,,0.00,,2013-03-02 08:31:00,
2013-03-02 00:52:00,46.0,8.0,30.12,SSE,158,0.0,0.0,21,0.00,,,0.00,,2013-03-02 08:52:00,
2013-03-02 01:01:00,45.0,7.0,30.12,SSE,158,3.0,5.0,21,0.00,,,0.00,,2013-03-02 09:01:00,
2013-03-02 01:11:00,43.0,6.0,30.12,SSE,158,0.0,5.0,21,0.00,,,0.00,,2013-03-02 09:11:00,
2013-03-02 01:21:00,43.0,6.0,30.12,SSE,158,0.0,5.0,21,0.00,,,0.00,,2013-03-02 09:21:00,
2013-03-02 01:31:00,42.0,6.0,30.09,SSE,158,0.0,0.0,22,0.00,,,0.00,,2013-03-02 09:31:00,
2013-03-02 01:52:00,43.0,6.0,30.09,SSE,158,0.0,0.0,21,0.00,,,0.00,,2013-03-02 09:52:00,
2013-03-02 02:01:00,44.0,7.0,30.09,SSE,158,0.0,0.0,21,0.00,,,0.00,,2013-03-02 10:01:00,
2013-03-02 02:11:00,44.0,7.0,30.09,SSE,158,0.0,0.0,21,0.00,,,0.00,,2013-03-02 10:11:00,
2013-03-02 02:21:00,44.0,7.0,30.09,SSE,158,0.0,0.0,21,0.00,,,0.00,,2013-03-02 10:21:00,
2013-03-02 02:31:00,44.0,7.0,30.09,SSE,158,0.0,0.0,21,0.00,,,0.00,,2013-03-02 10:31:00,
2013-03-02 02:52:00,44.0,7.0,30.06,SSE,158,0.0,0.0,21,0.00,,,0.00,,2013-03-02 10:52:00,
2013-03-02 03:01:00,43.0,6.0,30.06,SSE,158,0.0,0.0,21,0.00,,,0.00,,2013-03-02 11:01:00,
2013-03-02 03:21:00,43.0,6.0,30.06,SSE,158,0.0,0.0,21,0.00,,,0.00,,2013-03-02 11:21:00,
2013-03-02 03:31:00,42.0,6.0,30.06,SSE,158,0.0,0.0,22,0.00,,,0.00,,2013-03-02 11:31:00,
2013-03-02 03:52:00,42.0,6.0,30.06,SSE,158,0.0,0.0,22,0.00,,,0.00,,2013-03-02 11:52:00,
2013-03-02 04:02:00,42.0,6.0,30.06,SSE,158,0.0,0.0,22,0.00,,,0.00,,2013-03-02 12:02:00,
2013-03-02 04:21:00,42.0,6.0,30.06,SSE,158,0.0,0.0,22,0.00,,,0.00,,2013-03-02 12:21:00,
2013-03-02 04:32:00,43.0,6.0,30.06,SSE,158,3.0,5.0,21,0.00,,,0.00,,2013-03-02 12:32:00,
2013-03-02 04:53:00,40.0,4.0,30.06,SSE,158,3.0,5.0,22,0.00,,,0.00,,2013-03-02 12:53:00,
2013-03-02 05:01:00,40.0,4.0,30.06,SSE,158,2.0,5.0,22,0.00,,,0.00,,2013-03-02 13:01:00,
2013-03-02 05:21:00,39.0,3.0,30.06,SSE,158,2.0,5.0,22,0.00,,,0.00,,2013-03-02 13:21:00,
2013-03-02 05:31:00,40.0,4.0,30.03,SSE,158,3.0,5.0,22,0.00,,,0.00,,2013-03-02 13:31:00,
2013-03-02 05:52:00,41.0,5.0,30.03,SSE,158,0.0,0.0,22,0.00,,,0.00,,2013-03-02 13:52:00,
2013-03-02 06:01:00,42.0,6.0,30.03,SSE,158,3.0,5.0,22,0.00,,,0.00,,2013-03-02 14:01:00,
2013-03-02 06:21:00,42.0,6.0,30.03,SSE,158,3.0,3.0,22,0.00,,,0.00,,2013-03-02 14:21:00,
2013-03-02 06:31:00,42.0,6.0,30.06,SSE,158,2.0,5.0,22,0.00,,,0.00,,2013-03-02 14:31:00,
2013-03-02 06:52:00,42.0,6.0,30.03,SSE,158,3.0,5.0,22,0.00,,,0.00,,2013-03-02 14:52:00,
2013-03-02 07:01:00,43.0,6.0,30.06,SSE,158,3.0,5.0,21,0.00,,,0.00,,2013-03-02 15:01:00,
2013-03-02 07:21:00,46.0,8.0,30.06,SSE,158,3.0,3.0,21,0.00,,,0.00,,2013-03-02 15:21:00,
2013-03-02 07:31:00,50.0,11.0,30.06,SSE,158,0.0,0.0,20,0.00,,,0.00,,2013-03-02 15:31:00,
2013-03-02 07:41:00,50.0,11.0,30.06,SSE,158,0.0,0.0,20,0.00,,,0.00,,2013-03-02 15:41:00,
2013-03-02 07:52:00,52.0,12.0,30.06,SSE,158,0.0,0.0,20,0.00,,,0.00,,2013-03-02 15:52:00,
2013-03-02 08:01:00,55.0,14.0,30.06,SSE,158,0.0,0.0,19,0.00,,,0.00,,2013-03-02 16:01:00,
2013-03-02 08:21:00,57.0,14.0,30.06,SSE,158,0.0,0.0,18,0.00,,,0.00,,2013-03-02 16:21:00,
2013-03-02 08:31:00,57.0,14.0,30.06,SSE,158,0.0,0.0,18,0.00,,,0.00,,2013-03-02 16:31:00,
2013-03-02 08:41:00,57.0,14.0,30.06,SSE,158,0.0,0.0,18,0.00,,,0.00,,2013-03-02 16:41:00,
2013-03-02 08:52:00,55.0,14.0,30.06,SSE,158,3.0,5.0,19,0.00,,,0.00,,2013-03-02 16:52:00,
2013-03-02 09:01:00,57.0,14.0,30.06,SSE,158,1.0,3.0,18,0.00,,,0.00,,2013-03-02 17:01:00,
2013-03-02 09:11:00,59.0,16.0,30.06,SSE,158,0.0,5.0,18,0.00,,,0.00,,2013-03-02 17:11:00,
2013-03-02 09:21:00,59.0,16.0,30.06,SSE,158,0.0,5.0,18,0.00,,,0.00,,2013-03-02 17:21:00,
2013-03-02 09:31:00,60.0,16.0,30.06,SSE,158,2.0,3.0,18,0.00,,,0.00,,2013-03-02 17:31:00,
2013-03-02 09:41:00,60.0,16.0,30.06,SSE,158,2.0,3.0,18,0.00,,,0.00,,2013-03-02 17:41:00,
2013-03-02 09:52:00,64.0,18.0,30.06,South,180,0.0,3.0,17,0.00,,,0.00,,2013-03-02 17:52:00,
2013-03-02 10:01:00,66.0,19.0,30.06,SE,135,2.0,5.0,16,0.00,,,0.00,,2013-03-02 18:01:00,
2013-03-02 10:11:00,66.0,19.0,30.06,SE,135,2.0,5.0,16,0.00,,,0.00,,2013-03-02 18:11:00,
2013-03-02 10:21:00,66.0,19.0,30.06,SE,135,3.0,6.0,16,0.00,,,0.00,,2013-03-02 18:21:00,
2013-03-02 10:31:00,67.0,19.0,30.06,East,87,6.0,9.0,16,0.00,,,0.00,,2013-03-02 18:31:00,
2013-03-02 10:41:00,67.0,19.0,30.06,East,87,6.0,9.0,16,0.00,,,0.00,,2013-03-02 18:41:00,
2013-03-02 10:52:00,67.0,19.0,30.06,ENE,63,7.0,10.0,16,0.00,,,0.00,,2013-03-02 18:52:00,
2013-03-02 11:01:00,68.0,20.0,30.06,East,89,5.0,8.0,16,0.00,,,0.00,,2013-03-02 19:01:00,
2013-03-02 11:11:00,68.0,20.0,30.06,East,89,5.0,8.0,16,0.00,,,0.00,,2013-03-02 19:11:00,
2013-03-02 11:21:00,69.0,21.0,30.06,East,91,6.0,8.0,16,0.00,,,0.00,,2013-03-02 19:21:00,
2013-03-02 11:31:00,69.0,21.0,30.06,East,90,6.0,8.0,16,0.00,,,0.00,,2013-03-02 19:31:00,
2013-03-02 11:42:00,69.0,21.0,30.06,East,90,6.0,8.0,16,0.00,,,0.00,,2013-03-02 19:42:00,
2013-03-02 11:52:00,71.0,21.0,30.06,East,90,5.0,9.0,15,0.00,,,0.00,,2013-03-02 19:52:00,
2013-03-02 12:01:00,73.0,23.0,30.06,ENE,76,4.0,10.0,15,0.00,,,0.00,,2013-03-02 20:01:00,
2013-03-02 12:11:00,73.0,23.0,30.06,ENE,76,4.0,10.0,15,0.00,,,0.00,,2013-03-02 20:11:00,
2013-03-02 12:21:00,72.0,22.0,30.03,ENE,68,6.0,9.0,15,0.00,,,0.00,,2013-03-02 20:21:00,
2013-03-02 12:31:00,74.0,22.0,30.03,East,90,4.0,6.0,14,0.00,,,0.00,,2013-03-02 20:31:00,
2013-03-02 12:41:00,74.0,22.0,30.03,East,90,4.0,6.0,14,0.00,,,0.00,,2013-03-02 20:41:00,
2013-03-02 12:52:00,74.0,22.0,30.03,East,90,4.0,8.0,14,0.00,,,0.00,,2013-03-02 20:52:00,
2013-03-02 13:01:00,75.0,23.0,30.03,ENE,68,4.0,6.0,14,0.00,,,0.00,,2013-03-02 21:01:00,
2013-03-02 13:11:00,75.0,23.0,30.03,ENE,68,4.0,6.0,14,0.00,,,0.00,,2013-03-02 21:11:00,
2013-03-02 13:21:00,75.0,23.0,30.03,ENE,68,5.0,8.0,14,0.00,,,0.00,,2013-03-02 21:21:00,
2013-03-02 13:31:00,75.0,23.0,30.03,NE,45,5.0,8.0,14,0.00,,,0.00,,2013-03-02 21:31:00,
2013-03-02 13:41:00,75.0,23.0,30.03,NE,45,5.0,8.0,14,0.00,,,0.00,,2013-03-02 21:41:00,
2013-03-02 13:52:00,76.0,23.0,30.03,NE,45,5.0,8.0,14,0.00,,,0.00,,2013-03-02 21:52:00,
2013-03-02 14:01:00,77.0,24.0,30.00,NE,45,5.0,6.0,14,0.00,,,0.00,,2013-03-02 22:01:00,
2013-03-02 14:11:00,77.0,24.0,30.00,NE,45,5.0,6.0,14,0.00,,,0.00,,2013-03-02 22:11:00,
2013-03-02 14:21:00,76.0,23.0,30.00,NE,45,3.0,6.0,14,0.00,,,0.00,,2013-03-02 22:21:00,
2013-03-02 14:31:00,76.0,23.0,30.00,NE,45,3.0,5.0,14,0.00,,,0.00,,2013-03-02 22:31:00,
2013-03-02 14:41:00,76.0,23.0,30.00,NE,45,3.0,5.0,14,0.00,,,0.00,,2013-03-02 22:41:00,
2013-03-02 14:52:00,76.0,23.0,30.00,NE,45,0.0,6.0,14,0.00,,,0.00,,2013-03-02 22:52:00,
2013-03-02 15:01:00,75.0,23.0,30.00,NE,45,6.0,9.0,14,0.00,,,0.00,,2013-03-02 23:01:00,
2013-03-02 15:11:00,74.0,22.0,30.00,NE,45,2.0,6.0,14,0.00,,,0.00,,2013-03-02 23:11:00,
2013-03-02 15:21:00,74.0,22.0,30.00,NE,45,2.0,6.0,14,0.00,,,0.00,,2013-03-02 23:21:00,
2013-03-02 15:31:00,76.0,23.0,30.00,NE,45,0.0,8.0,14,0.00,,,0.00,,2013-03-02 23:31:00,
2013-03-02 15:41:00,76.0,23.0,30.00,NE,45,0.0,8.0,14,0.00,,,0.00,,2013-03-02 23:41:00,
2013-03-02 15:52:00,75.0,23.0,30.00,NE,45,0.0,5.0,14,0.00,,,0.00,,2013-03-02 23:52:00,
2013-03-02 16:02:00,74.0,22.0,30.00,NE,45,5.0,6.0,14,0.00,,,0.00,,2013-03-03 00:02:00,
2013-03-02 16:11:00,74.0,22.0,30.00,NE,45,5.0,6.0,14,0.00,,,0.00,,2013-03-03 00:11:00,
2013-03-02 16:22:00,74.0,22.0,30.00,NE,45,5.0,6.0,14,0.00,,,0.00,,2013-03-03 00:22:00,
2013-03-02 16:31:00,74.0,22.0,30.00,NE,45,0.0,6.0,14,0.00,,,0.00,,2013-03-03 00:31:00,
2013-03-02 16:42:00,74.0,22.0,30.00,NE,45,0.0,6.0,14,0.00,,,0.00,,2013-03-03 00:42:00,
2013-03-02 16:52:00,73.0,23.0,29.97,NE,45,0.0,5.0,15,0.00,,,0.00,,2013-03-03 00:52:00,
2013-03-02 17:01:00,74.0,22.0,29.97,NE,45,0.0,0.0,14,0.00,,,0.00,,2013-03-03 01:01:00,
2013-03-02 17:11:00,74.0,22.0,29.97,NE,45,0.0,0.0,14,0.00,,,0.00,,2013-03-03 01:11:00,
2013-03-02 17:21:00,73.0,23.0,29.97,NE,45,0.0,0.0,15,0.00,,,0.00,,2013-03-03 01:21:00,
2013-03-02 17:31:00,71.0,21.0,29.97,NE,45,0.0,0.0,15,0.00,,,0.00,,2013-03-03 01:31:00,
2013-03-02 17:41:00,71.0,21.0,29.97,NE,45,0.0,0.0,15,0.00,,,0.00,,2013-03-03 01:41:00,
2013-03-02 17:52:00,70.0,20.0,29.97,NE,45,0.0,0.0,15,0.00,,,0.00,,2013-03-03 01:52:00,
2013-03-02 18:01:00,68.0,20.0,29.97,NE,45,0.0,0.0,16,0.00,,,0.00,,2013-03-03 02:01:00,
2013-03-02 18:11:00,65.0,18.0,29.97,NE,45,0.0,0.0,16,0.00,,,0.00,,2013-03-03 02:11:00,
2013-03-02 18:21:00,65.0,18.0,29.97,NE,45,0.0,0.0,16,0.00,,,0.00,,2013-03-03 02:21:00,
2013-03-02 18:31:00,62.0,17.0,29.97,NE,45,5.0,6.0,17,0.00,,,0.00,,2013-03-03 02:31:00,
2013-03-02 18:41:00,62.0,17.0,29.97,NE,45,5.0,6.0,17,0.00,,,0.00,,2013-03-03 02:41:00,
2013-03-02 18:52:00,60.0,16.0,29.97,South,180,3.0,5.0,18,0.00,,,0.00,,2013-03-03 02:52:00,
2013-03-02 19:01:00,60.0,16.0,29.97,South,180,0.0,2.0,18,0.00,,,0.00,,2013-03-03 03:01:00,
2013-03-02 19:21:00,58.0,15.0,29.94,South,180,0.0,0.0,18,0.00,,,0.00,,2013-03-03 03:21:00,
2013-03-02 19:31:00,57.0,14.0,29.94,South,180,0.0,0.0,18,0.00,,,0.00,,2013-03-03 03:31:00,
2013-03-02 19:41:00,57.0,14.0,29.94,South,180,0.0,0.0,18,0.00,,,0.00,,2013-03-03 03:41:00,
2013-03-02 19:52:00,56.0,13.0,29.97,South,180,0.0,3.0,18,0.00,,,0.00,,2013-03-03 03:52:00,
2013-03-02 20:01:00,55.0,14.0,29.97,South,180,0.0,0.0,19,0.00,,,0.00,,2013-03-03 04:01:00,
2013-03-02 20:21:00,54.0,13.0,29.94,South,180,3.0,5.0,19,0.00,,,0.00,,2013-03-03 04:21:00,
2013-03-02 20:31:00,54.0,13.0,29.94,South,180,0.0,0.0,19,0.00,,,0.00,,2013-03-03 04:31:00,
2013-03-02 20:52:00,53.0,12.0,29.94,South,180,3.0,6.0,19,0.00,,,0.00,,2013-03-03 04:52:00,
2013-03-02 21:01:00,53.0,12.0,29.94,South,180,3.0,3.0,19,0.00,,,0.00,,2013-03-03 05:01:00,
2013-03-02 21:21:00,52.0,11.0,29.94,South,180,0.0,0.0,19,0.00,,,0.00,,2013-03-03 05:21:00,
2013-03-02 21:32:00,51.0,11.0,29.94,South,180,0.0,3.0,20,0.00,,,0.00,,2013-03-03 05:32:00,
2013-03-02 21:52:00,51.0,11.0,29.94,South,180,1.0,6.0,20,0.00,,,0.00,,2013-03-03 05:52:00,
2013-03-02 22:01:00,51.0,11.0,29.94,South,180,0.0,2.0,20,0.00,,,0.00,,2013-03-03 06:01:00,
2013-03-02 22:21:00,51.0,11.0,29.94,South,180,1.0,5.0,20,0.00,,,0.00,,2013-03-03 06:21:00,
2013-03-02 22:31:00,51.0,11.0,29.94,South,180,0.0,5.0,20,0.00,,,0.00,,2013-03-03 06:31:00,
2013-03-02 22:52:00,50.0,11.0,29.94,South,180,0.0,3.0,20,0.00,,,0.00,,2013-03-03 06:52:00,
2013-03-02 23:01:00,50.0,11.0,29.94,South,180,1.0,5.0,20,0.00,,,0.00,,2013-03-03 07:01:00,
2013-03-02 23:21:00,50.0,11.0,29.94,South,180,0.0,3.0,20,0.00,,,0.00,,2013-03-03 07:21:00,
2013-03-02 23:31:00,49.0,10.0,29.91,South,180,0.0,3.0,20,0.00,,,0.00,,2013-03-03 07:31:00,
2013-03-02 23:51:00,50.0,11.0,29.91,South,180,2.0,5.0,20,0.00,,,0.00,,2013-03-03 07:51:00,